createdAt,value
2019-01-19T09:04:08.476Z,1.90
2019-01-19T09:06:38.117Z,2.00
2019-01-19T09:15:24.311Z,2.26
2019-01-19T09:18:13.744Z,2.35
2019-01-19T09:30:24.193Z,2.58
2019-01-19T09:33:13.740Z,2.64
2019-01-19T09:36:03.271Z,2.46
2019-01-19T09:38:52.209Z,2.77
2019-01-19T09:42:01.892Z,2.42
2019-01-19T09:44:50.884Z,2.88
2019-01-19T09:47:39.909Z,2.98
2019-01-19T09:50:28.823Z,3.07
2019-01-19T09:53:17.612Z,3.13
2019-01-19T09:56:06.551Z,3.04
2019-01-19T09:58:48.515Z,3.25
2019-01-19T10:01:37.447Z,3.13
2019-01-19T10:04:26.400Z,3.32
2019-01-19T10:07:15.344Z,3.36
2019-01-19T10:10:25.073Z,3.41
2019-01-19T10:13:13.993Z,2.95
2019-01-19T10:16:02.884Z,3.52
2019-01-19T10:18:51.784Z,3.56
2019-01-19T10:21:40.702Z,3.59
2019-01-19T10:24:29.557Z,3.63
2019-01-19T10:27:18.420Z,3.55
2019-01-19T10:30:28.170Z,3.72
2019-01-19T10:33:17.121Z,3.75
2019-01-19T10:36:06.005Z,3.37
2019-01-19T10:38:54.845Z,3.39
2019-01-19T10:41:43.765Z,3.83
2019-01-19T10:44:32.606Z,3.86
2019-01-19T10:47:21.427Z,3.92
2019-01-19T10:50:29.598Z,3.98
2019-01-19T10:53:18.608Z,3.70
2019-01-19T10:56:00.450Z,3.83
2019-01-19T10:58:49.329Z,4.14
2019-01-19T11:01:38.178Z,4.18
2019-01-19T11:04:27.078Z,4.24
2019-01-19T11:06:56.647Z,4.29
2019-01-19T11:09:45.629Z,4.36
2019-01-19T11:12:34.522Z,4.42
2019-01-19T11:15:23.504Z,4.30
2019-01-19T11:18:05.779Z,4.55
2019-01-19T11:20:54.715Z,4.63
2019-01-19T11:23:43.624Z,4.71
2019-01-19T11:26:32.552Z,4.77
2019-01-19T11:29:21.446Z,4.82
2019-01-19T11:32:10.471Z,4.86
2019-01-19T11:34:59.257Z,4.89
2019-01-19T11:37:48.159Z,4.75
2019-01-19T11:40:43.880Z,4.91
2019-01-19T11:43:32.699Z,4.94
2019-01-19T11:46:21.534Z,4.95
2019-01-19T11:49:10.391Z,4.96
2019-01-19T11:51:59.230Z,4.97
2019-01-19T11:57:40.621Z,4.96
2019-01-19T12:00:48.791Z,4.97
2019-01-19T12:03:37.714Z,4.98
2019-01-19T12:06:27.198Z,4.98
2019-01-19T12:09:16.043Z,4.99
2019-01-19T12:12:05.125Z,5.01
2019-01-19T12:14:54.013Z,5.03
2019-01-19T12:17:43.061Z,5.04
2019-01-19T12:20:51.246Z,4.73
2019-01-19T12:23:40.237Z,4.93
2019-01-19T12:26:29.130Z,5.06
2019-01-19T12:29:17.970Z,5.01
2019-01-19T12:32:06.872Z,5.09
2019-01-19T12:34:55.826Z,5.13
2019-01-19T12:37:44.772Z,4.67
2019-01-19T12:40:33.707Z,5.23
2019-01-19T12:43:22.686Z,5.26
2019-01-19T12:46:11.632Z,5.26
2019-01-19T12:49:00.489Z,5.30
2019-01-19T12:51:49.397Z,5.32
2019-01-19T12:54:38.299Z,5.37
2019-01-19T12:57:27.142Z,5.41
2019-01-19T13:00:36.911Z,5.47
2019-01-19T13:03:25.757Z,5.33
2019-01-19T13:06:35.509Z,5.58
2019-01-19T13:09:24.383Z,5.64
2019-01-19T13:12:34.146Z,5.68
2019-01-19T13:16:01.664Z,5.72
2019-01-19T13:19:11.442Z,5.74
2019-01-19T13:22:21.191Z,5.78
2019-01-19T13:25:30.904Z,5.82
2019-01-19T13:28:40.812Z,5.85
2019-01-19T13:31:50.600Z,5.69
2019-01-19T13:35:18.111Z,5.90
2019-01-19T13:38:45.619Z,5.66
2019-01-19T13:41:55.394Z,5.94
2019-01-19T13:45:22.947Z,5.93
2019-01-19T13:48:32.738Z,5.95
2019-01-19T13:51:42.470Z,5.98
2019-01-19T13:54:52.215Z,6.00
2019-01-19T13:58:01.949Z,6.03
2019-01-19T14:01:10.085Z,6.03
2019-01-19T14:04:19.792Z,6.03
2019-01-19T14:07:29.533Z,6.01
2019-01-19T14:10:39.334Z,5.98
2019-01-19T14:13:49.131Z,5.94
2019-01-19T14:17:16.666Z,5.91
2019-01-19T14:20:26.427Z,5.89
2019-01-19T14:27:31.721Z,5.89
2019-01-19T14:30:41.542Z,5.89
2019-01-19T14:33:51.302Z,5.89
2019-01-19T14:37:18.799Z,5.86
2019-01-19T14:40:46.346Z,5.35
2019-01-19T14:44:13.958Z,5.79
2019-01-19T14:47:41.493Z,5.73
2019-01-19T14:51:09.043Z,5.67
2019-01-19T14:54:36.531Z,5.61
2019-01-19T14:57:46.302Z,5.54
2019-01-19T15:00:56.102Z,5.48
2019-01-19T15:04:23.612Z,5.43
2019-01-19T15:07:51.155Z,5.38
2019-01-19T15:11:01.017Z,5.33
2019-01-19T15:14:29.428Z,5.25
2019-01-19T15:17:56.945Z,5.18
2019-01-19T15:21:06.773Z,5.09
2019-01-19T15:24:34.274Z,4.98
2019-01-19T15:28:01.821Z,4.86
2019-01-19T15:31:29.352Z,4.75
2019-01-19T15:34:39.083Z,4.64
2019-01-19T15:38:06.640Z,4.53
2019-01-19T15:41:07.984Z,4.38
2019-01-19T15:44:35.545Z,4.15
2019-01-19T15:48:03.066Z,4.18
2019-01-19T15:51:12.881Z,4.16
2019-01-19T15:58:13.168Z,3.98
2019-01-19T16:01:22.965Z,3.85
2019-01-19T16:04:32.743Z,3.74
2019-01-19T16:07:42.509Z,3.66
2019-01-19T16:10:52.307Z,3.58
2019-01-19T16:14:19.905Z,3.49
2019-01-19T16:17:29.673Z,3.41
2019-01-19T16:20:39.475Z,3.20
2019-01-19T16:24:11.022Z,3.22
2019-01-19T16:27:42.573Z,3.12
2019-01-19T16:30:52.339Z,3.04
2019-01-19T16:34:02.102Z,2.95
2019-01-19T18:26:06.736Z,1.74
